sensor_id;sensor_type;location;lat;lon;timestamp;temperature;humidity
73133;DHT22;61320;52.008;4.530;2022-10-23T00:01:20;16.32;79.51
73133;DHT22;61320;52.008;4.530;2022-10-23T00:03:50;16.30;79.40
73133;DHT22;61320;52.008;4.530;2022-10-23T00:06:16;16.24;79.15
73133;DHT22;61320;52.008;4.530;2022-10-23T00:08:45;16.19;78.41
73133;DHT22;61320;52.008;4.530;2022-10-23T00:11:13;16.16;79.22
73133;DHT22;61320;52.008;4.530;2022-10-23T00:13:39;16.18;79.96
73133;DHT22;61320;52.008;4.530;2022-10-23T00:16:05;16.19;79.98
73133;DHT22;61320;52.008;4.530;2022-10-23T00:18:32;16.18;80.03
73133;DHT22;61320;52.008;4.530;2022-10-23T00:20:57;16.21;79.93
73133;DHT22;61320;52.008;4.530;2022-10-23T00:23:23;16.21;79.48
73133;DHT22;61320;52.008;4.530;2022-10-23T00:25:49;16.16;78.34
73133;DHT22;61320;52.008;4.530;2022-10-23T00:28:15;16.14;80.22
73133;DHT22;61320;52.008;4.530;2022-10-23T00:30:41;16.14;79.26
73133;DHT22;61320;52.008;4.530;2022-10-23T00:33:07;16.16;79.65
73133;DHT22;61320;52.008;4.530;2022-10-23T00:35:32;16.16;79.49
73133;DHT22;61320;52.008;4.530;2022-10-23T00:37:57;16.15;80.45
73133;DHT22;61320;52.008;4.530;2022-10-23T00:40:23;16.14;80.30
73133;DHT22;61320;52.008;4.530;2022-10-23T00:42:48;16.15;79.25
73133;DHT22;61320;52.008;4.530;2022-10-23T00:47:46;16.16;79.65
73133;DHT22;61320;52.008;4.530;2022-10-23T00:50:12;16.15;80.03
73133;DHT22;61320;52.008;4.530;2022-10-23T00:52:44;16.16;79.90
73133;DHT22;61320;52.008;4.530;2022-10-23T00:55:11;16.19;80.07
73133;DHT22;61320;52.008;4.530;2022-10-23T00:57:41;16.22;80.12
73133;DHT22;61320;52.008;4.530;2022-10-23T01:00:07;16.18;80.09
73133;DHT22;61320;52.008;4.530;2022-10-23T01:02:33;16.21;79.52
73133;DHT22;61320;52.008;4.530;2022-10-23T01:04:58;16.19;80.22
73133;DHT22;61320;52.008;4.530;2022-10-23T01:10:36;16.21;79.66
73133;DHT22;61320;52.008;4.530;2022-10-23T01:15:42;16.15;79.32
73133;DHT22;61320;52.008;4.530;2022-10-23T01:18:26;16.16;79.49
73133;DHT22;61320;52.008;4.530;2022-10-23T01:20:59;16.12;79.94
73133;DHT22;61320;52.008;4.530;2022-10-23T01:23:39;16.14;80.10
73133;DHT22;61320;52.008;4.530;2022-10-23T01:26:35;16.12;79.81
73133;DHT22;61320;52.008;4.530;2022-10-23T01:29:09;16.09;79.42
73133;DHT22;61320;52.008;4.530;2022-10-23T01:31:46;16.09;80.10
73133;DHT22;61320;52.008;4.530;2022-10-23T01:34:28;16.09;80.18
73133;DHT22;61320;52.008;4.530;2022-10-23T01:36:56;16.11;79.51
73133;DHT22;61320;52.008;4.530;2022-10-23T01:39:28;16.12;79.86
73133;DHT22;61320;52.008;4.530;2022-10-23T01:42:10;16.12;79.82
73133;DHT22;61320;52.008;4.530;2022-10-23T01:47:05;16.12;79.78
73133;DHT22;61320;52.008;4.530;2022-10-23T01:49:32;16.11;79.64
73133;DHT22;61320;52.008;4.530;2022-10-23T01:52:02;16.09;80.32
73133;DHT22;61320;52.008;4.530;2022-10-23T01:54:35;16.15;80.78
73133;DHT22;61320;52.008;4.530;2022-10-23T01:57:07;16.12;79.83
73133;DHT22;61320;52.008;4.530;2022-10-23T01:59:39;16.14;80.24
73133;DHT22;61320;52.008;4.530;2022-10-23T02:02:08;16.14;80.29
73133;DHT22;61320;52.008;4.530;2022-10-23T02:04:39;16.14;79.67
73133;DHT22;61320;52.008;4.530;2022-10-23T02:07:05;16.08;79.37
73133;DHT22;61320;52.008;4.530;2022-10-23T02:09:31;16.04;79.37
73133;DHT22;61320;52.008;4.530;2022-10-23T02:12:09;16.04;79.45
73133;DHT22;61320;52.008;4.530;2022-10-23T02:20:25;16.01;79.58
73133;DHT22;61320;52.008;4.530;2022-10-23T02:23:02;16.02;80.19
73133;DHT22;61320;52.008;4.530;2022-10-23T02:25:35;16.04;79.62
73133;DHT22;61320;52.008;4.530;2022-10-23T02:28:07;16.02;80.16
73133;DHT22;61320;52.008;4.530;2022-10-23T02:30:37;16.01;79.82
73133;DHT22;61320;52.008;4.530;2022-10-23T02:33:07;16.02;80.31
73133;DHT22;61320;52.008;4.530;2022-10-23T02:35:34;16.05;80.15
73133;DHT22;61320;52.008;4.530;2022-10-23T02:38:00;16.04;79.87
73133;DHT22;61320;52.008;4.530;2022-10-23T02:40:37;16.06;79.92
73133;DHT22;61320;52.008;4.530;2022-10-23T02:43:22;16.05;79.39
73133;DHT22;61320;52.008;4.530;2022-10-23T02:45:59;16.00;79.76
73133;DHT22;61320;52.008;4.530;2022-10-23T02:48:38;16.02;80.03
73133;DHT22;61320;52.008;4.530;2022-10-23T02:51:17;16.05;79.28
73133;DHT22;61320;52.008;4.530;2022-10-23T02:56:52;16.00;79.85
73133;DHT22;61320;52.008;4.530;2022-10-23T03:02:53;16.02;79.86
73133;DHT22;61320;52.008;4.530;2022-10-23T03:04:55;16.04;80.30
73133;DHT22;61320;52.008;4.530;2022-10-23T03:07:21;16.02;80.46
73133;DHT22;61320;52.008;4.530;2022-10-23T03:09:47;16.06;80.67
73133;DHT22;61320;52.008;4.530;2022-10-23T03:12:13;16.09;80.18
73133;DHT22;61320;52.008;4.530;2022-10-23T03:14:38;16.11;80.51
73133;DHT22;61320;52.008;4.530;2022-10-23T03:17:04;16.09;79.85
73133;DHT22;61320;52.008;4.530;2022-10-23T03:19:30;16.11;80.08
73133;DHT22;61320;52.008;4.530;2022-10-23T03:21:55;16.09;80.01
73133;DHT22;61320;52.008;4.530;2022-10-23T03:24:21;16.08;79.40
73133;DHT22;61320;52.008;4.530;2022-10-23T03:26:46;16.08;80.12
73133;DHT22;61320;52.008;4.530;2022-10-23T03:29:11;16.06;79.55
73133;DHT22;61320;52.008;4.530;2022-10-23T03:31:37;16.05;79.71
73133;DHT22;61320;52.008;4.530;2022-10-23T03:34:02;16.04;79.33
73133;DHT22;61320;52.008;4.530;2022-10-23T03:36:34;16.01;79.67
73133;DHT22;61320;52.008;4.530;2022-10-23T03:38:59;16.01;79.51
73133;DHT22;61320;52.008;4.530;2022-10-23T03:41:25;15.98;79.55
73133;DHT22;61320;52.008;4.530;2022-10-23T03:43:50;15.98;79.04
73133;DHT22;61320;52.008;4.530;2022-10-23T03:46:16;15.98;79.55
73133;DHT22;61320;52.008;4.530;2022-10-23T03:48:41;15.94;79.64
73133;DHT22;61320;52.008;4.530;2022-10-23T03:51:07;15.97;79.32
73133;DHT22;61320;52.008;4.530;2022-10-23T03:53:33;15.91;79.89
73133;DHT22;61320;52.008;4.530;2022-10-23T03:55:58;15.95;79.91
73133;DHT22;61320;52.008;4.530;2022-10-23T03:58:24;15.98;79.85
73133;DHT22;61320;52.008;4.530;2022-10-23T04:00:49;15.95;79.32
73133;DHT22;61320;52.008;4.530;2022-10-23T04:03:15;15.93;79.77
73133;DHT22;61320;52.008;4.530;2022-10-23T04:05:41;15.95;79.80
73133;DHT22;61320;52.008;4.530;2022-10-23T04:08:07;15.95;78.80
73133;DHT22;61320;52.008;4.530;2022-10-23T04:10:35;15.91;79.82
73133;DHT22;61320;52.008;4.530;2022-10-23T04:13:01;15.91;79.88
73133;DHT22;61320;52.008;4.530;2022-10-23T04:15:26;15.94;79.54
73133;DHT22;61320;52.008;4.530;2022-10-23T04:17:52;15.94;78.92
73133;DHT22;61320;52.008;4.530;2022-10-23T04:20:17;15.90;80.20
73133;DHT22;61320;52.008;4.530;2022-10-23T04:22:43;15.94;80.11
73133;DHT22;61320;52.008;4.530;2022-10-23T04:25:08;15.95;80.03
73133;DHT22;61320;52.008;4.530;2022-10-23T04:27:33;15.93;79.50
73133;DHT22;61320;52.008;4.530;2022-10-23T04:29:59;15.94;79.74
73133;DHT22;61320;52.008;4.530;2022-10-23T04:32:25;15.88;80.31
73133;DHT22;61320;52.008;4.530;2022-10-23T04:34:51;15.90;79.63
73133;DHT22;61320;52.008;4.530;2022-10-23T04:37:16;15.90;79.75
73133;DHT22;61320;52.008;4.530;2022-10-23T04:39:42;15.90;80.22
73133;DHT22;61320;52.008;4.530;2022-10-23T04:42:07;15.90;80.16
73133;DHT22;61320;52.008;4.530;2022-10-23T04:44:33;15.91;80.32
73133;DHT22;61320;52.008;4.530;2022-10-23T04:46:58;15.90;79.57
73133;DHT22;61320;52.008;4.530;2022-10-23T04:49:23;15.90;79.71
73133;DHT22;61320;52.008;4.530;2022-10-23T04:51:49;15.88;79.23
73133;DHT22;61320;52.008;4.530;2022-10-23T04:54:14;15.87;79.99
73133;DHT22;61320;52.008;4.530;2022-10-23T04:56:40;15.88;79.55
73133;DHT22;61320;52.008;4.530;2022-10-23T04:59:05;15.91;80.36
73133;DHT22;61320;52.008;4.530;2022-10-23T05:01:31;15.94;80.26
73133;DHT22;61320;52.008;4.530;2022-10-23T05:03:56;15.95;79.97
73133;DHT22;61320;52.008;4.530;2022-10-23T05:06:22;15.97;79.98
73133;DHT22;61320;52.008;4.530;2022-10-23T05:08:47;15.98;79.73
73133;DHT22;61320;52.008;4.530;2022-10-23T05:11:13;15.97;79.71
73133;DHT22;61320;52.008;4.530;2022-10-23T05:13:38;15.97;79.71
73133;DHT22;61320;52.008;4.530;2022-10-23T05:16:04;16.01;79.61
73133;DHT22;61320;52.008;4.530;2022-10-23T05:18:37;15.97;79.93
73133;DHT22;61320;52.008;4.530;2022-10-23T05:21:11;16.00;79.53
73133;DHT22;61320;52.008;4.530;2022-10-23T05:23:41;15.95;79.64
73133;DHT22;61320;52.008;4.530;2022-10-23T05:26:08;15.95;79.97
73133;DHT22;61320;52.008;4.530;2022-10-23T05:28:34;15.95;79.51
73133;DHT22;61320;52.008;4.530;2022-10-23T05:31:02;15.97;79.77
73133;DHT22;61320;52.008;4.530;2022-10-23T05:33:30;15.98;80.29
73133;DHT22;61320;52.008;4.530;2022-10-23T05:35:57;16.00;80.08
73133;DHT22;61320;52.008;4.530;2022-10-23T05:38:25;16.02;79.47
73133;DHT22;61320;52.008;4.530;2022-10-23T05:40:52;16.05;79.53
73133;DHT22;61320;52.008;4.530;2022-10-23T05:43:18;16.05;79.69
73133;DHT22;61320;52.008;4.530;2022-10-23T05:45:44;16.05;80.20
73133;DHT22;61320;52.008;4.530;2022-10-23T05:48:09;16.04;80.20
73133;DHT22;61320;52.008;4.530;2022-10-23T05:50:35;16.05;79.89
73133;DHT22;61320;52.008;4.530;2022-10-23T05:53:01;16.05;80.19
73133;DHT22;61320;52.008;4.530;2022-10-23T05:55:26;16.06;80.10
73133;DHT22;61320;52.008;4.530;2022-10-23T05:57:52;16.05;79.89
73133;DHT22;61320;52.008;4.530;2022-10-23T06:00:17;16.05;79.79
73133;DHT22;61320;52.008;4.530;2022-10-23T06:02:43;16.06;80.42
73133;DHT22;61320;52.008;4.530;2022-10-23T06:05:08;16.06;79.58
73133;DHT22;61320;52.008;4.530;2022-10-23T06:07:34;16.05;80.07
73133;DHT22;61320;52.008;4.530;2022-10-23T06:10:00;16.06;79.44
73133;DHT22;61320;52.008;4.530;2022-10-23T06:12:25;16.06;78.97
73133;DHT22;61320;52.008;4.530;2022-10-23T06:14:51;16.06;79.15
73133;DHT22;61320;52.008;4.530;2022-10-23T06:17:16;16.09;79.47
73133;DHT22;61320;52.008;4.530;2022-10-23T06:19:43;16.05;79.73
73133;DHT22;61320;52.008;4.530;2022-10-23T06:22:09;16.05;80.05
73133;DHT22;61320;52.008;4.530;2022-10-23T06:24:34;16.08;79.44
73133;DHT22;61320;52.008;4.530;2022-10-23T06:27:00;16.08;80.24
73133;DHT22;61320;52.008;4.530;2022-10-23T06:29:25;16.11;79.83
73133;DHT22;61320;52.008;4.530;2022-10-23T06:31:51;16.09;80.32
73133;DHT22;61320;52.008;4.530;2022-10-23T06:34:16;16.11;79.98
73133;DHT22;61320;52.008;4.530;2022-10-23T06:36:42;16.11;79.75
73133;DHT22;61320;52.008;4.530;2022-10-23T06:39:08;16.05;80.19
73133;DHT22;61320;52.008;4.530;2022-10-23T06:41:34;16.06;80.27
73133;DHT22;61320;52.008;4.530;2022-10-23T06:43:59;16.04;79.68
73133;DHT22;61320;52.008;4.530;2022-10-23T06:46:26;16.05;79.64
73133;DHT22;61320;52.008;4.530;2022-10-23T06:48:54;16.04;80.20
73133;DHT22;61320;52.008;4.530;2022-10-23T06:51:19;16.06;80.07
73133;DHT22;61320;52.008;4.530;2022-10-23T06:53:46;16.06;79.82
73133;DHT22;61320;52.008;4.530;2022-10-23T06:56:12;16.06;80.19
73133;DHT22;61320;52.008;4.530;2022-10-23T06:58:39;16.04;80.10
73133;DHT22;61320;52.008;4.530;2022-10-23T07:01:08;16.09;80.06
73133;DHT22;61320;52.008;4.530;2022-10-23T07:03:34;16.15;79.10
73133;DHT22;61320;52.008;4.530;2022-10-23T07:06:05;16.15;79.45
73133;DHT22;61320;52.008;4.530;2022-10-23T07:08:31;16.16;80.02
73133;DHT22;61320;52.008;4.530;2022-10-23T07:11:01;16.18;80.10
73133;DHT22;61320;52.008;4.530;2022-10-23T07:13:26;16.18;79.88
73133;DHT22;61320;52.008;4.530;2022-10-23T07:15:52;16.21;79.55
73133;DHT22;61320;52.008;4.530;2022-10-23T07:18:17;16.24;80.20
73133;DHT22;61320;52.008;4.530;2022-10-23T07:20:43;16.28;79.50
73133;DHT22;61320;52.008;4.530;2022-10-23T07:23:12;16.29;79.51
73133;DHT22;61320;52.008;4.530;2022-10-23T07:25:40;16.33;79.59
73133;DHT22;61320;52.008;4.530;2022-10-23T07:28:05;16.32;78.62
73133;DHT22;61320;52.008;4.530;2022-10-23T07:30:31;16.28;79.34
73133;DHT22;61320;52.008;4.530;2022-10-23T07:32:56;16.30;79.37
73133;DHT22;61320;52.008;4.530;2022-10-23T07:35:26;16.32;79.52
73133;DHT22;61320;52.008;4.530;2022-10-23T07:37:51;16.32;79.69
73133;DHT22;61320;52.008;4.530;2022-10-23T07:40:17;16.35;79.86
73133;DHT22;61320;52.008;4.530;2022-10-23T07:42:43;16.35;79.22
73133;DHT22;61320;52.008;4.530;2022-10-23T07:45:09;16.38;79.79
73133;DHT22;61320;52.008;4.530;2022-10-23T07:47:35;16.38;79.34
73133;DHT22;61320;52.008;4.530;2022-10-23T07:50:01;16.41;80.03
73133;DHT22;61320;52.008;4.530;2022-10-23T07:52:26;16.48;80.06
73133;DHT22;61320;52.008;4.530;2022-10-23T07:54:52;16.52;78.40
73133;DHT22;61320;52.008;4.530;2022-10-23T07:57:19;16.51;78.73
73133;DHT22;61320;52.008;4.530;2022-10-23T07:59:44;16.48;78.82
73133;DHT22;61320;52.008;4.530;2022-10-23T08:02:12;16.49;79.28
73133;DHT22;61320;52.008;4.530;2022-10-23T08:04:38;16.49;79.11
73133;DHT22;61320;52.008;4.530;2022-10-23T08:07:03;16.55;79.24
73133;DHT22;61320;52.008;4.530;2022-10-23T08:09:29;16.55;79.49
73133;DHT22;61320;52.008;4.530;2022-10-23T08:11:55;16.59;78.61
73133;DHT22;61320;52.008;4.530;2022-10-23T08:14:21;16.60;79.33
73133;DHT22;61320;52.008;4.530;2022-10-23T08:16:47;16.62;79.60
73133;DHT22;61320;52.008;4.530;2022-10-23T08:19:13;16.62;79.52
73133;DHT22;61320;52.008;4.530;2022-10-23T08:21:38;16.64;79.24
73133;DHT22;61320;52.008;4.530;2022-10-23T08:24:04;16.63;79.16
73133;DHT22;61320;52.008;4.530;2022-10-23T08:26:30;16.64;79.42
73133;DHT22;61320;52.008;4.530;2022-10-23T08:28:59;16.69;79.37
73133;DHT22;61320;52.008;4.530;2022-10-23T08:31:26;16.67;79.38
73133;DHT22;61320;52.008;4.530;2022-10-23T08:33:51;16.69;79.10
73133;DHT22;61320;52.008;4.530;2022-10-23T08:36:23;16.72;79.31
73133;DHT22;61320;52.008;4.530;2022-10-23T08:38:50;16.67;79.28
73133;DHT22;61320;52.008;4.530;2022-10-23T08:43:55;16.73;79.33
73133;DHT22;61320;52.008;4.530;2022-10-23T08:46:27;16.77;79.47
73133;DHT22;61320;52.008;4.530;2022-10-23T08:49:46;16.81;79.40
73133;DHT22;61320;52.008;4.530;2022-10-23T08:51:54;16.84;79.11
73133;DHT22;61320;52.008;4.530;2022-10-23T08:57:14;16.90;79.14
73133;DHT22;61320;52.008;4.530;2022-10-23T08:59:54;16.95;79.27
73133;DHT22;61320;52.008;4.530;2022-10-23T09:02:26;16.99;78.85
73133;DHT22;61320;52.008;4.530;2022-10-23T09:04:54;16.95;79.13
73133;DHT22;61320;52.008;4.530;2022-10-23T09:07:33;16.97;78.64
73133;DHT22;61320;52.008;4.530;2022-10-23T09:12:46;17.01;79.25
73133;DHT22;61320;52.008;4.530;2022-10-23T09:15:19;17.03;79.23
73133;DHT22;61320;52.008;4.530;2022-10-23T09:17:54;17.04;79.54
73133;DHT22;61320;52.008;4.530;2022-10-23T09:20:34;17.06;79.23
73133;DHT22;61320;52.008;4.530;2022-10-23T09:23:01;17.10;78.95
73133;DHT22;61320;52.008;4.530;2022-10-23T09:25:33;17.10;79.21
73133;DHT22;61320;52.008;4.530;2022-10-23T09:28:01;17.10;78.94
73133;DHT22;61320;52.008;4.530;2022-10-23T09:30:36;17.11;78.99
73133;DHT22;61320;52.008;4.530;2022-10-23T09:33:21;17.12;78.93
73133;DHT22;61320;52.008;4.530;2022-10-23T09:35:59;17.10;79.27
73133;DHT22;61320;52.008;4.530;2022-10-23T09:40:59;17.11;78.76
73133;DHT22;61320;52.008;4.530;2022-10-23T09:43:25;17.12;78.81
73133;DHT22;61320;52.008;4.530;2022-10-23T09:45:57;17.14;78.93
73133;DHT22;61320;52.008;4.530;2022-10-23T09:48:22;17.08;78.84
73133;DHT22;61320;52.008;4.530;2022-10-23T09:50:54;17.10;78.91
73133;DHT22;61320;52.008;4.530;2022-10-23T09:53:39;17.07;78.88
73133;DHT22;61320;52.008;4.530;2022-10-23T09:56:33;17.08;79.08
73133;DHT22;61320;52.008;4.530;2022-10-23T09:59:20;17.06;79.14
73133;DHT22;61320;52.008;4.530;2022-10-23T10:01:57;17.08;79.24
73133;DHT22;61320;52.008;4.530;2022-10-23T10:04:35;17.15;79.35
73133;DHT22;61320;52.008;4.530;2022-10-23T10:07:04;17.20;79.33
73133;DHT22;61320;52.008;4.530;2022-10-23T10:09:31;17.21;79.01
73133;DHT22;61320;52.008;4.530;2022-10-23T10:12:17;17.20;78.97
73133;DHT22;61320;52.008;4.530;2022-10-23T10:15:32;17.22;79.14
73133;DHT22;61320;52.008;4.530;2022-10-23T10:18:21;17.24;78.97
73133;DHT22;61320;52.008;4.530;2022-10-23T10:21:14;17.25;78.98
73133;DHT22;61320;52.008;4.530;2022-10-23T10:23:58;17.28;79.03
73133;DHT22;61320;52.008;4.530;2022-10-23T10:29:22;17.32;78.95
73133;DHT22;61320;52.008;4.530;2022-10-23T10:32:22;17.35;78.75
73133;DHT22;61320;52.008;4.530;2022-10-23T10:35:02;17.41;79.23
73133;DHT22;61320;52.008;4.530;2022-10-23T10:38:08;17.42;79.01
73133;DHT22;61320;52.008;4.530;2022-10-23T10:40:41;17.45;78.92
73133;DHT22;61320;52.008;4.530;2022-10-23T10:46:17;17.53;78.87
73133;DHT22;61320;52.008;4.530;2022-10-23T10:48:59;17.58;78.49
73133;DHT22;61320;52.008;4.530;2022-10-23T10:52:02;17.66;79.08
73133;DHT22;61320;52.008;4.530;2022-10-23T10:57:34;17.80;78.80
73133;DHT22;61320;52.008;4.530;2022-10-23T11:00:12;17.87;78.72
73133;DHT22;61320;52.008;4.530;2022-10-23T11:02:45;17.92;78.23
73133;DHT22;61320;52.008;4.530;2022-10-23T11:07:53;17.97;78.19
73133;DHT22;61320;52.008;4.530;2022-10-23T11:10:20;18.00;78.40
73133;DHT22;61320;52.008;4.530;2022-10-23T11:12:47;18.07;77.47
73133;DHT22;61320;52.008;4.530;2022-10-23T11:15:16;18.09;77.64
73133;DHT22;61320;52.008;4.530;2022-10-23T11:17:48;18.16;77.74
73133;DHT22;61320;52.008;4.530;2022-10-23T11:20:31;18.26;77.67
73133;DHT22;61320;52.008;4.530;2022-10-23T11:37:20;18.54;77.31
73133;DHT22;61320;52.008;4.530;2022-10-23T11:40:01;18.48;76.55
73133;DHT22;61320;52.008;4.530;2022-10-23T11:42:46;18.51;76.28
73133;DHT22;61320;52.008;4.530;2022-10-23T11:45:34;18.51;76.58
73133;DHT22;61320;52.008;4.530;2022-10-23T11:48:03;18.57;76.50
73133;DHT22;61320;52.008;4.530;2022-10-23T11:50:49;18.61;76.58
73133;DHT22;61320;52.008;4.530;2022-10-23T11:53:36;18.52;76.58
73133;DHT22;61320;52.008;4.530;2022-10-23T11:58:52;18.52;76.54
73133;DHT22;61320;52.008;4.530;2022-10-23T12:01:41;18.54;77.27
73133;DHT22;61320;52.008;4.530;2022-10-23T12:06:43;18.54;77.03
73133;DHT22;61320;52.008;4.530;2022-10-23T12:09:51;18.58;77.76
73133;DHT22;61320;52.008;4.530;2022-10-23T12:12:35;18.65;76.57
73133;DHT22;61320;52.008;4.530;2022-10-23T12:17:38;18.73;77.22
73133;DHT22;61320;52.008;4.530;2022-10-23T12:40:27;19.02;76.28
73133;DHT22;61320;52.008;4.530;2022-10-23T12:42:59;19.10;75.14
73133;DHT22;61320;52.008;4.530;2022-10-23T12:45:29;19.13;75.69
73133;DHT22;61320;52.008;4.530;2022-10-23T12:47:56;19.13;75.62
73133;DHT22;61320;52.008;4.530;2022-10-23T12:50:32;19.16;75.56
73133;DHT22;61320;52.008;4.530;2022-10-23T12:53:00;19.17;76.30
73133;DHT22;61320;52.008;4.530;2022-10-23T12:55:44;19.23;76.10
73133;DHT22;61320;52.008;4.530;2022-10-23T12:58:26;19.27;75.64
73133;DHT22;61320;52.008;4.530;2022-10-23T13:00:58;19.31;75.80
73133;DHT22;61320;52.008;4.530;2022-10-23T13:03:26;19.36;75.62
73133;DHT22;61320;52.008;4.530;2022-10-23T13:05:55;19.40;74.63
73133;DHT22;61320;52.008;4.530;2022-10-23T13:08:31;19.39;75.67
73133;DHT22;61320;52.008;4.530;2022-10-23T13:10:58;19.39;74.78
73133;DHT22;61320;52.008;4.530;2022-10-23T13:13:27;19.39;75.21
73133;DHT22;61320;52.008;4.530;2022-10-23T13:15:52;19.41;74.72
73133;DHT22;61320;52.008;4.530;2022-10-23T13:18:18;19.36;75.28
73133;DHT22;61320;52.008;4.530;2022-10-23T13:23:22;19.37;75.29
73133;DHT22;61320;52.008;4.530;2022-10-23T13:26:01;19.43;74.80
73133;DHT22;61320;52.008;4.530;2022-10-23T13:28:33;19.41;75.71
73133;DHT22;61320;52.008;4.530;2022-10-23T13:33:50;19.50;74.56
73133;DHT22;61320;52.008;4.530;2022-10-23T13:38:58;19.49;75.09
73133;DHT22;61320;52.008;4.530;2022-10-23T13:41:39;19.51;74.43
73133;DHT22;61320;52.008;4.530;2022-10-23T13:44:13;19.51;75.59
73133;DHT22;61320;52.008;4.530;2022-10-23T13:46:42;19.50;74.36
73133;DHT22;61320;52.008;4.530;2022-10-23T13:49:14;19.50;75.32
73133;DHT22;61320;52.008;4.530;2022-10-23T13:51:47;19.58;75.14
73133;DHT22;61320;52.008;4.530;2022-10-23T13:54:20;19.66;74.36
73133;DHT22;61320;52.008;4.530;2022-10-23T13:56:46;19.67;75.14
73133;DHT22;61320;52.008;4.530;2022-10-23T13:59:15;19.74;75.29
73133;DHT22;61320;52.008;4.530;2022-10-23T14:01:48;19.66;74.41
73133;DHT22;61320;52.008;4.530;2022-10-23T14:04:17;19.60;74.98
73133;DHT22;61320;52.008;4.530;2022-10-23T14:06:43;19.51;73.78
73133;DHT22;61320;52.008;4.530;2022-10-23T14:09:13;19.47;74.57
73133;DHT22;61320;52.008;4.530;2022-10-23T14:11:39;19.51;74.39
73133;DHT22;61320;52.008;4.530;2022-10-23T14:14:05;19.53;75.08
73133;DHT22;61320;52.008;4.530;2022-10-23T14:16:31;19.61;74.47
73133;DHT22;61320;52.008;4.530;2022-10-23T14:18:57;19.57;74.83
73133;DHT22;61320;52.008;4.530;2022-10-23T14:21:23;19.60;74.53
73133;DHT22;61320;52.008;4.530;2022-10-23T14:23:51;19.64;75.13
73133;DHT22;61320;52.008;4.530;2022-10-23T14:26:21;19.66;75.39
73133;DHT22;61320;52.008;4.530;2022-10-23T14:28:47;19.63;74.51
73133;DHT22;61320;52.008;4.530;2022-10-23T14:31:15;19.67;75.80
73133;DHT22;61320;52.008;4.530;2022-10-23T14:33:43;19.73;74.90
73133;DHT22;61320;52.008;4.530;2022-10-23T14:36:10;19.64;74.75
73133;DHT22;61320;52.008;4.530;2022-10-23T14:38:36;19.64;75.11
73133;DHT22;61320;52.008;4.530;2022-10-23T14:41:02;19.61;74.76
73133;DHT22;61320;52.008;4.530;2022-10-23T14:43:33;19.66;75.16
73133;DHT22;61320;52.008;4.530;2022-10-23T14:46:07;19.54;73.94
73133;DHT22;61320;52.008;4.530;2022-10-23T14:48:33;19.53;74.82
73133;DHT22;61320;52.008;4.530;2022-10-23T14:51:06;19.53;74.16
73133;DHT22;61320;52.008;4.530;2022-10-23T14:53:38;19.47;74.74
73133;DHT22;61320;52.008;4.530;2022-10-23T14:56:03;19.41;74.05
73133;DHT22;61320;52.008;4.530;2022-10-23T14:58:29;19.37;74.61
73133;DHT22;61320;52.008;4.530;2022-10-23T15:00:58;19.34;73.98
73133;DHT22;61320;52.008;4.530;2022-10-23T15:03:25;19.33;75.08
73133;DHT22;61320;52.008;4.530;2022-10-23T15:05:51;19.40;74.59
73133;DHT22;61320;52.008;4.530;2022-10-23T15:08:16;19.41;74.36
73133;DHT22;61320;52.008;4.530;2022-10-23T15:10:42;19.36;75.15
73133;DHT22;61320;52.008;4.530;2022-10-23T15:13:07;19.34;76.33
73133;DHT22;61320;52.008;4.530;2022-10-23T15:15:33;19.41;75.07
73133;DHT22;61320;52.008;4.530;2022-10-23T15:17:58;19.37;75.19
73133;DHT22;61320;52.008;4.530;2022-10-23T15:20:24;19.40;74.86
73133;DHT22;61320;52.008;4.530;2022-10-23T15:22:49;19.39;74.51
73133;DHT22;61320;52.008;4.530;2022-10-23T15:25:15;19.36;74.95
73133;DHT22;61320;52.008;4.530;2022-10-23T15:27:41;19.36;74.75
73133;DHT22;61320;52.008;4.530;2022-10-23T15:30:07;19.33;75.08
73133;DHT22;61320;52.008;4.530;2022-10-23T15:32:32;19.31;75.83
73133;DHT22;61320;52.008;4.530;2022-10-23T15:34:58;19.31;75.63
73133;DHT22;61320;52.008;4.530;2022-10-23T15:37:26;19.27;74.80
73133;DHT22;61320;52.008;4.530;2022-10-23T15:39:51;19.31;75.38
73133;DHT22;61320;52.008;4.530;2022-10-23T15:42:17;19.34;74.89
73133;DHT22;61320;52.008;4.530;2022-10-23T15:44:45;19.29;75.07
73133;DHT22;61320;52.008;4.530;2022-10-23T15:47:11;19.26;74.40
73133;DHT22;61320;52.008;4.530;2022-10-23T15:49:37;19.24;75.21
73133;DHT22;61320;52.008;4.530;2022-10-23T15:52:04;19.20;75.38
73133;DHT22;61320;52.008;4.530;2022-10-23T15:54:32;19.22;76.08
73133;DHT22;61320;52.008;4.530;2022-10-23T15:56:59;19.22;74.92
73133;DHT22;61320;52.008;4.530;2022-10-23T15:59:25;19.20;74.74
73133;DHT22;61320;52.008;4.530;2022-10-23T16:01:54;19.17;75.43
73133;DHT22;61320;52.008;4.530;2022-10-23T16:04:20;19.17;75.56
73133;DHT22;61320;52.008;4.530;2022-10-23T16:06:46;19.19;74.37
73133;DHT22;61320;52.008;4.530;2022-10-23T16:09:12;19.17;75.11
73133;DHT22;61320;52.008;4.530;2022-10-23T16:11:39;19.16;75.11
73133;DHT22;61320;52.008;4.530;2022-10-23T16:14:06;19.19;74.63
73133;DHT22;61320;52.008;4.530;2022-10-23T16:16:33;19.20;75.26
73133;DHT22;61320;52.008;4.530;2022-10-23T16:19:00;19.16;75.54
73133;DHT22;61320;52.008;4.530;2022-10-23T16:21:29;19.17;75.10
73133;DHT22;61320;52.008;4.530;2022-10-23T16:23:57;19.08;74.99
73133;DHT22;61320;52.008;4.530;2022-10-23T16:26:24;19.06;75.22
73133;DHT22;61320;52.008;4.530;2022-10-23T16:28:54;19.05;74.94
73133;DHT22;61320;52.008;4.530;2022-10-23T16:31:21;19.08;74.65
73133;DHT22;61320;52.008;4.530;2022-10-23T16:33:48;19.08;75.10
73133;DHT22;61320;52.008;4.530;2022-10-23T16:36:15;19.13;74.52
73133;DHT22;61320;52.008;4.530;2022-10-23T16:38:40;19.09;75.43
73133;DHT22;61320;52.008;4.530;2022-10-23T16:41:06;19.10;75.12
73133;DHT22;61320;52.008;4.530;2022-10-23T16:43:32;19.09;74.80
73133;DHT22;61320;52.008;4.530;2022-10-23T16:46:12;19.06;74.84
73133;DHT22;61320;52.008;4.530;2022-10-23T16:48:40;19.09;74.76
73133;DHT22;61320;52.008;4.530;2022-10-23T16:51:12;19.06;74.79
73133;DHT22;61320;52.008;4.530;2022-10-23T16:53:38;19.06;75.30
73133;DHT22;61320;52.008;4.530;2022-10-23T16:56:06;18.99;75.26
73133;DHT22;61320;52.008;4.530;2022-10-23T16:58:35;18.92;75.21
73133;DHT22;61320;52.008;4.530;2022-10-23T17:01:04;18.94;74.92
73133;DHT22;61320;52.008;4.530;2022-10-23T17:03:34;18.87;75.38
73133;DHT22;61320;52.008;4.530;2022-10-23T17:06:06;18.89;75.51
73133;DHT22;61320;52.008;4.530;2022-10-23T17:08:32;18.88;75.97
73133;DHT22;61320;52.008;4.530;2022-10-23T17:11:13;18.88;76.26
73133;DHT22;61320;52.008;4.530;2022-10-23T17:13:42;18.92;76.04
73133;DHT22;61320;52.008;4.530;2022-10-23T17:16:12;18.98;75.68
73133;DHT22;61320;52.008;4.530;2022-10-23T17:18:40;18.98;76.17
73133;DHT22;61320;52.008;4.530;2022-10-23T17:21:06;18.99;75.22